createdAt,value
2023-05-18T00:01:24.427Z,2.60
2023-05-18T00:03:54.406Z,2.28
2023-05-18T00:06:22.587Z,2.67
2023-05-18T00:08:49.224Z,2.72
2023-05-18T00:11:16.622Z,2.38
2023-05-18T00:13:43.292Z,2.20
2023-05-18T00:16:12.223Z,2.58
2023-05-18T00:18:38.928Z,2.97
2023-05-18T00:21:06.537Z,2.50
2023-05-18T00:23:33.293Z,2.70
2023-05-18T00:26:01.351Z,2.47
2023-05-18T00:28:29.027Z,4.13
2023-05-18T00:30:56.700Z,2.38
2023-05-18T00:33:23.893Z,2.38
2023-05-18T00:35:50.588Z,2.15
2023-05-18T00:38:17.339Z,2.03
2023-05-18T00:40:44.257Z,2.30
2023-05-18T00:43:10.708Z,2.00
2023-05-18T00:45:37.307Z,2.42
2023-05-18T00:48:04.278Z,2.25
2023-05-18T00:50:30.858Z,2.20
2023-05-18T00:52:57.577Z,2.10
2023-05-18T00:55:24.203Z,2.67
2023-05-18T00:57:51.815Z,2.30
2023-05-18T01:00:18.550Z,2.72
2023-05-18T01:02:46.189Z,2.42
2023-05-18T01:05:13.435Z,2.72
2023-05-18T01:07:44.217Z,2.63
2023-05-18T01:10:12.224Z,2.33
2023-05-18T01:12:49.334Z,2.30
2023-05-18T01:15:19.110Z,2.40
2023-05-18T01:18:27.500Z,3.22
2023-05-18T01:21:43.173Z,2.60
2023-05-18T01:24:39.006Z,1.88
2023-05-18T01:27:08.055Z,2.42
2023-05-18T01:29:34.895Z,2.50
2023-05-18T01:32:01.558Z,2.30
2023-05-18T01:34:28.098Z,2.05
2023-05-18T01:36:54.670Z,2.45
2023-05-18T01:39:21.398Z,2.40
2023-05-18T01:42:03.548Z,2.40
2023-05-18T01:44:38.860Z,2.72
2023-05-18T01:47:25.118Z,3.50
2023-05-18T01:49:58.097Z,2.63
2023-05-18T01:52:30.691Z,3.20
2023-05-18T01:55:02.131Z,2.85
2023-05-18T01:57:31.352Z,3.17
2023-05-18T02:00:00.352Z,2.88
2023-05-18T02:02:28.156Z,3.15
2023-05-18T02:04:55.511Z,3.80
2023-05-18T02:07:22.006Z,2.65
2023-05-18T02:09:48.776Z,2.70
2023-05-18T02:12:16.272Z,2.95
2023-05-18T02:14:42.777Z,2.88
2023-05-18T02:17:09.275Z,2.92
2023-05-18T02:19:38.207Z,2.80
2023-05-18T02:22:08.424Z,3.08
2023-05-18T02:24:35.192Z,3.00
2023-05-18T02:27:02.100Z,2.90
2023-05-18T02:29:28.641Z,2.47
2023-05-18T02:31:55.132Z,2.63
2023-05-18T02:34:22.841Z,2.80
2023-05-18T02:36:49.944Z,3.95
2023-05-18T02:39:16.662Z,3.30
2023-05-18T02:41:43.259Z,2.65
2023-05-18T02:44:09.766Z,3.17
2023-05-18T02:46:36.367Z,3.05
2023-05-18T02:49:03.054Z,3.20
2023-05-18T02:51:30.538Z,3.00
2023-05-18T02:53:57.680Z,2.88
2023-05-18T02:56:24.776Z,3.78
2023-05-18T02:58:57.799Z,3.03
2023-05-18T03:01:27.911Z,3.00
2023-05-18T03:03:54.898Z,3.17
2023-05-18T03:06:26.581Z,2.85
2023-05-18T03:08:56.635Z,2.78
2023-05-18T03:11:24.199Z,3.63
2023-05-18T03:13:51.013Z,3.38
2023-05-18T03:16:17.810Z,3.13
2023-05-18T03:18:44.950Z,3.42
2023-05-18T03:21:13.802Z,2.92
2023-05-18T03:23:40.809Z,3.40
2023-05-18T03:26:11.745Z,2.72
2023-05-18T03:28:38.906Z,2.80
2023-05-18T03:31:05.931Z,3.22
2023-05-18T03:33:32.882Z,3.33
2023-05-18T03:36:04.010Z,3.85
2023-05-18T03:38:30.883Z,3.03
2023-05-18T03:40:57.489Z,3.58
2023-05-18T03:43:30.005Z,3.22
2023-05-18T03:45:56.695Z,3.08
2023-05-18T03:48:24.443Z,3.30
2023-05-18T03:50:51.086Z,3.10
2023-05-18T03:53:21.586Z,2.90
2023-05-18T03:55:51.804Z,3.10
2023-05-18T03:58:22.697Z,3.08
2023-05-18T04:00:49.759Z,2.45
2023-05-18T04:03:16.387Z,2.97
2023-05-18T04:05:43.691Z,3.05
2023-05-18T04:08:14.871Z,3.35
2023-05-18T04:10:43.118Z,3.50
2023-05-18T04:13:09.763Z,3.25
2023-05-18T04:15:36.715Z,2.63
2023-05-18T04:18:03.367Z,3.33
2023-05-18T04:20:30.160Z,2.85
2023-05-18T04:23:00.244Z,2.83
2023-05-18T04:25:28.686Z,2.42
2023-05-18T04:27:59.507Z,2.92
2023-05-18T04:30:27.590Z,2.63
2023-05-18T04:32:54.934Z,2.60
2023-05-18T04:35:21.576Z,2.17
2023-05-18T04:37:48.070Z,2.97
2023-05-18T04:40:16.958Z,2.60
2023-05-18T04:42:48.186Z,2.75
2023-05-18T04:45:17.195Z,2.75
2023-05-18T04:47:48.028Z,3.05
2023-05-18T04:50:17.930Z,2.95
2023-05-18T04:52:48.812Z,3.00
2023-05-18T04:55:26.153Z,3.05
2023-05-18T04:57:56.438Z,3.78
2023-05-18T05:00:28.895Z,2.60
2023-05-18T05:02:56.255Z,3.03
2023-05-18T05:05:23.410Z,2.78
2023-05-18T05:07:51.656Z,2.60
2023-05-18T05:10:19.447Z,3.13
2023-05-18T05:12:48.581Z,3.75
2023-05-18T05:15:16.263Z,2.80
2023-05-18T05:17:42.828Z,2.80
2023-05-18T05:20:09.709Z,3.15
2023-05-18T05:22:36.730Z,3.33
2023-05-18T05:25:06.043Z,3.10
2023-05-18T05:27:33.502Z,2.85
2023-05-18T05:30:00.206Z,2.85
2023-05-18T05:32:26.952Z,2.85
2023-05-18T05:34:53.615Z,3.47
2023-05-18T05:37:20.612Z,2.88
2023-05-18T05:39:47.581Z,3.10
2023-05-18T05:42:14.620Z,3.17
2023-05-18T05:44:41.540Z,2.85
2023-05-18T05:47:08.763Z,2.97
2023-05-18T05:49:35.438Z,3.15
2023-05-18T05:52:02.959Z,2.70
2023-05-18T05:54:29.455Z,3.65
2023-05-18T05:56:56.065Z,3.75
2023-05-18T05:59:22.654Z,3.08
2023-05-18T06:01:49.519Z,3.30
2023-05-18T06:04:16.592Z,3.05
2023-05-18T06:06:44.030Z,3.20
2023-05-18T06:09:11.088Z,2.70
2023-05-18T06:11:38.445Z,3.58
2023-05-18T06:14:05.293Z,3.60
2023-05-18T06:16:31.978Z,2.85
2023-05-18T06:18:59.292Z,3.15
2023-05-18T06:21:25.959Z,2.97
2023-05-18T06:23:52.570Z,3.25
2023-05-18T06:26:19.208Z,2.65
2023-05-18T06:28:45.881Z,3.17
2023-05-18T06:31:13.115Z,2.88
2023-05-18T06:33:40.310Z,2.72
2023-05-18T06:36:07.312Z,3.03
2023-05-18T06:38:33.793Z,3.38
2023-05-18T06:41:00.589Z,3.13
2023-05-18T06:43:29.166Z,3.25
2023-05-18T06:45:56.514Z,3.22
2023-05-18T06:48:26.147Z,2.85
2023-05-18T06:50:53.074Z,3.35
2023-05-18T06:53:19.723Z,3.10
2023-05-18T06:55:46.631Z,3.38
2023-05-18T06:58:13.648Z,2.53
2023-05-18T07:00:40.221Z,2.80
2023-05-18T07:03:07.018Z,3.35
2023-05-18T07:05:34.271Z,2.63
2023-05-18T07:08:04.972Z,2.42
2023-05-18T07:10:32.013Z,2.78
2023-05-18T07:12:58.806Z,2.80
2023-05-18T07:15:26.959Z,3.47
2023-05-18T07:17:53.564Z,2.33
2023-05-18T07:20:20.207Z,3.67
2023-05-18T07:22:46.936Z,2.40
2023-05-18T07:25:13.635Z,2.60
2023-05-18T07:27:40.125Z,2.92
2023-05-18T07:30:08.065Z,2.88
2023-05-18T07:32:35.075Z,3.20
2023-05-18T07:35:01.784Z,2.58
2023-05-18T07:37:28.563Z,2.80
2023-05-18T07:39:55.089Z,2.65
2023-05-18T07:42:21.709Z,2.80
2023-05-18T07:44:48.201Z,2.53
2023-05-18T07:47:14.750Z,2.60
2023-05-18T07:49:41.566Z,3.15
2023-05-18T07:52:08.513Z,2.72
2023-05-18T07:54:35.286Z,2.72
2023-05-18T07:57:01.862Z,2.33
2023-05-18T07:59:28.500Z,2.63
2023-05-18T08:01:55.207Z,2.47
2023-05-18T08:04:21.774Z,2.80
2023-05-18T08:06:48.379Z,2.65
2023-05-18T08:09:15.038Z,2.50
2023-05-18T08:11:43.063Z,2.70
2023-05-18T08:14:09.600Z,2.35
2023-05-18T08:16:38.823Z,2.60
2023-05-18T08:19:05.632Z,2.80
2023-05-18T08:21:32.928Z,2.38
2023-05-18T08:23:59.504Z,3.08
2023-05-18T08:26:27.166Z,2.55
2023-05-18T08:28:53.941Z,2.38
2023-05-18T08:31:21.485Z,2.38
2023-05-18T08:33:48.587Z,2.38
2023-05-18T08:36:15.486Z,2.85
2023-05-18T08:38:42.573Z,2.72
2023-05-18T08:41:28.671Z,2.97
2023-05-18T08:44:04.866Z,2.97
2023-05-18T08:46:39.654Z,2.90
2023-05-18T08:49:07.130Z,3.13
2023-05-18T08:51:35.774Z,3.10
2023-05-18T08:54:06.137Z,3.30
2023-05-18T08:56:36.263Z,3.08
2023-05-18T08:59:07.916Z,3.10
2023-05-18T09:01:35.255Z,2.92
2023-05-18T09:04:02.626Z,2.92
2023-05-18T09:06:29.118Z,2.72
2023-05-18T09:09:04.614Z,2.70
2023-05-18T09:11:33.334Z,2.25
2023-05-18T09:14:00.916Z,2.55
2023-05-18T09:16:27.852Z,2.60
2023-05-18T09:18:54.956Z,3.35
2023-05-18T09:21:21.491Z,2.67
2023-05-18T09:23:48.030Z,3.03
2023-05-18T09:26:14.568Z,2.53
2023-05-18T09:28:43.434Z,2.65
2023-05-18T09:31:16.737Z,2.90
2023-05-18T09:33:44.857Z,2.70
2023-05-18T09:36:12.513Z,3.30
2023-05-18T09:38:46.324Z,2.33
2023-05-18T09:41:15.283Z,2.58
2023-05-18T09:43:43.802Z,2.60
2023-05-18T09:46:12.324Z,2.80
2023-05-18T09:48:44.471Z,2.90
2023-05-18T09:51:16.616Z,3.17
2023-05-18T09:53:54.605Z,2.70
2023-05-18T09:56:24.369Z,3.00
2023-05-18T09:58:51.117Z,2.70
2023-05-18T10:01:17.834Z,2.92
2023-05-18T10:03:48.336Z,2.63
2023-05-18T10:06:17.661Z,3.22
2023-05-18T10:08:45.670Z,2.75
2023-05-18T10:11:12.614Z,2.70
2023-05-18T10:13:39.389Z,2.90
2023-05-18T10:16:08.030Z,3.13
2023-05-18T10:18:37.281Z,2.60
2023-05-18T10:21:06.060Z,2.65
2023-05-18T10:23:34.510Z,2.92
2023-05-18T10:26:04.502Z,2.50
2023-05-18T10:28:37.560Z,2.75
2023-05-18T10:31:04.682Z,3.03
2023-05-18T10:33:31.674Z,2.75
2023-05-18T10:35:58.500Z,3.08
2023-05-18T10:38:29.607Z,3.15
2023-05-18T10:40:57.897Z,2.35
2023-05-18T10:43:27.747Z,2.75
2023-05-18T10:46:05.665Z,2.63
2023-05-18T10:48:32.209Z,2.67
2023-05-18T10:50:59.141Z,2.85
2023-05-18T10:53:30.489Z,2.10
2023-05-18T10:55:57.312Z,2.55
2023-05-18T10:58:26.572Z,2.75
2023-05-18T11:00:57.377Z,2.35
2023-05-18T11:03:27.109Z,2.53
2023-05-18T11:06:04.693Z,2.55
2023-05-18T11:08:31.369Z,2.55
2023-05-18T11:11:06.690Z,2.47
2023-05-18T11:13:35.570Z,2.42
2023-05-18T11:16:05.510Z,2.58
2023-05-18T11:18:46.556Z,2.72
2023-05-18T11:21:22.423Z,2.05
2023-05-18T11:24:13.989Z,1.98
2023-05-18T11:26:41.560Z,2.17
2023-05-18T11:29:23.578Z,2.30
2023-05-18T11:31:52.826Z,2.10
2023-05-18T11:34:42.506Z,2.13
2023-05-18T11:37:10.703Z,2.95
2023-05-18T11:39:44.920Z,2.22
2023-05-18T11:42:18.748Z,2.47
2023-05-18T11:44:52.327Z,2.20
2023-05-18T11:47:19.381Z,1.63
2023-05-18T11:49:48.288Z,2.13
2023-05-18T11:52:22.604Z,1.77
2023-05-18T11:54:57.261Z,2.40
2023-05-18T11:57:42.121Z,1.73
2023-05-18T12:00:12.449Z,2.45
2023-05-18T12:02:44.418Z,2.00
2023-05-18T12:05:14.492Z,2.15
2023-05-18T12:07:42.523Z,2.35
2023-05-18T12:10:28.670Z,2.58
2023-05-18T12:12:57.250Z,2.53
2023-05-18T12:15:25.110Z,2.20
2023-05-18T12:17:52.430Z,1.92
2023-05-18T12:20:21.416Z,2.05
2023-05-18T12:22:50.524Z,2.00
2023-05-18T12:25:17.562Z,2.33
2023-05-18T12:27:46.096Z,2.20
2023-05-18T12:30:23.384Z,2.10
2023-05-18T12:32:57.664Z,2.00
2023-05-18T12:35:26.207Z,2.22
2023-05-18T12:37:53.216Z,2.42
2023-05-18T12:40:20.582Z,1.65
2023-05-18T12:42:57.174Z,1.88
2023-05-18T12:45:28.343Z,2.25
2023-05-18T12:47:56.301Z,1.75
2023-05-18T12:50:26.945Z,1.98
2023-05-18T12:52:55.987Z,1.95
2023-05-18T12:55:23.465Z,2.00
2023-05-18T12:58:00.998Z,1.70
2023-05-18T13:00:32.589Z,2.15
2023-05-18T13:03:16.096Z,1.80
2023-05-18T13:05:45.456Z,1.60
2023-05-18T13:08:22.041Z,1.70
2023-05-18T13:11:01.259Z,2.10
2023-05-18T13:13:36.296Z,2.00
2023-05-18T13:16:03.189Z,2.50
2023-05-18T13:18:29.727Z,1.98
2023-05-18T13:20:58.736Z,1.83
2023-05-18T13:23:29.111Z,1.85
2023-05-18T13:25:58.835Z,2.08
2023-05-18T13:28:27.734Z,1.90
2023-05-18T13:30:54.722Z,2.03
2023-05-18T13:33:21.636Z,1.75
2023-05-18T13:35:49.963Z,1.88
2023-05-18T13:38:16.960Z,2.05
2023-05-18T13:40:43.580Z,2.05
2023-05-18T13:43:12.679Z,2.38
2023-05-18T13:45:40.166Z,2.00
2023-05-18T13:48:09.649Z,2.40
2023-05-18T13:50:37.226Z,1.90
2023-05-18T13:53:04.013Z,1.63
2023-05-18T13:55:31.430Z,2.72
2023-05-18T13:57:58.342Z,2.28
2023-05-18T14:00:25.095Z,2.10
2023-05-18T14:02:53.727Z,2.00
2023-05-18T14:05:20.647Z,2.05
2023-05-18T14:07:47.254Z,2.08
2023-05-18T14:10:14.047Z,2.20
2023-05-18T14:12:43.983Z,2.22
2023-05-18T14:15:11.990Z,2.92
2023-05-18T14:17:39.981Z,2.10
2023-05-18T14:20:08.274Z,2.10
2023-05-18T14:22:35.778Z,2.20
2023-05-18T14:25:02.554Z,2.75
2023-05-18T14:27:29.409Z,2.55
2023-05-18T14:29:56.387Z,2.17
2023-05-18T14:32:23.167Z,1.77
2023-05-18T14:34:52.146Z,1.95
2023-05-18T14:37:19.180Z,2.53
2023-05-18T14:39:46.291Z,2.50
2023-05-18T14:42:13.121Z,2.00
2023-05-18T14:44:43.538Z,2.30
2023-05-18T14:47:10.663Z,2.40
2023-05-18T14:49:39.251Z,1.98
2023-05-18T14:52:06.352Z,2.00
2023-05-18T14:54:33.066Z,1.85
2023-05-18T14:56:59.851Z,1.85
2023-05-18T14:59:26.497Z,2.38
2023-05-18T15:01:53.298Z,2.00
2023-05-18T15:04:21.834Z,2.17
2023-05-18T15:06:49.767Z,2.08
2023-05-18T15:09:16.870Z,2.63
2023-05-18T15:11:44.623Z,2.40
2023-05-18T15:14:11.222Z,2.95
2023-05-18T15:16:38.866Z,4.80
2023-05-18T15:19:06.768Z,2.53
2023-05-18T15:21:33.403Z,2.05
2023-05-18T15:24:00.050Z,1.80
2023-05-18T15:26:29.620Z,1.90
2023-05-18T15:28:56.491Z,2.00
2023-05-18T15:31:23.156Z,2.05
2023-05-18T15:33:49.844Z,2.05
2023-05-18T15:36:21.441Z,2.40
2023-05-18T15:38:48.137Z,1.83
2023-05-18T15:41:14.908Z,2.33
2023-05-18T15:43:41.997Z,1.92
2023-05-18T15:46:08.665Z,2.28
2023-05-18T15:48:35.695Z,2.03
2023-05-18T15:51:04.443Z,1.60
2023-05-18T15:53:31.714Z,1.98
2023-05-18T15:55:59.533Z,3.30
2023-05-18T15:58:26.851Z,2.88
2023-05-18T16:00:53.457Z,4.05
2023-05-18T16:03:22.310Z,3.75
2023-05-18T16:05:49.114Z,3.30
2023-05-18T16:08:15.757Z,3.10
2023-05-18T16:10:42.394Z,2.90
2023-05-18T16:13:08.956Z,2.20
2023-05-18T16:15:37.424Z,2.20
2023-05-18T16:18:04.394Z,2.10
2023-05-18T16:20:31.276Z,2.20
2023-05-18T16:22:58.700Z,1.85
2023-05-18T16:25:26.367Z,2.22
2023-05-18T16:27:52.968Z,2.15
2023-05-18T16:30:19.558Z,2.33
2023-05-18T16:32:46.285Z,2.17
2023-05-18T16:35:13.070Z,2.00
2023-05-18T16:37:39.682Z,2.13
2023-05-18T16:40:07.580Z,2.30
2023-05-18T16:42:34.482Z,2.00
2023-05-18T16:45:01.253Z,1.85
2023-05-18T16:47:28.669Z,2.15
2023-05-18T16:49:55.306Z,3.30
2023-05-18T16:52:21.841Z,2.00
2023-05-18T16:54:48.647Z,1.83
2023-05-18T16:57:16.495Z,1.70
2023-05-18T16:59:43.076Z,2.38
2023-05-18T17:02:16.253Z,1.95
2023-05-18T17:04:46.003Z,1.50
2023-05-18T17:07:12.966Z,2.28
2023-05-18T17:09:41.846Z,1.88
2023-05-18T17:12:12.458Z,2.13
2023-05-18T17:14:39.435Z,3.05
2023-05-18T17:17:07.232Z,2.30
2023-05-18T17:19:35.274Z,2.03
2023-05-18T17:22:02.870Z,2.45
2023-05-18T17:24:29.485Z,1.98
2023-05-18T17:26:56.386Z,6.18
2023-05-18T17:29:23.212Z,1.95
2023-05-18T17:31:49.820Z,2.00
2023-05-18T17:34:16.511Z,2.17
2023-05-18T17:36:43.339Z,2.30
2023-05-18T17:39:11.132Z,3.15
2023-05-18T17:41:37.739Z,2.35
2023-05-18T17:44:04.851Z,2.58
2023-05-18T17:46:31.906Z,3.03
2023-05-18T17:49:01.946Z,2.60
2023-05-18T17:51:28.457Z,3.17
2023-05-18T17:53:56.546Z,2.88
2023-05-18T17:56:25.003Z,2.10
2023-05-18T17:58:53.215Z,2.15
2023-05-18T18:01:20.653Z,2.45
2023-05-18T18:03:48.669Z,1.80
2023-05-18T18:06:18.093Z,1.63
2023-05-18T18:08:45.086Z,2.25
2023-05-18T18:11:11.784Z,1.90
2023-05-18T18:13:38.381Z,1.70
2023-05-18T18:16:05.575Z,2.40
2023-05-18T18:18:36.678Z,1.90
2023-05-18T18:21:04.148Z,2.50
2023-05-18T18:23:30.810Z,2.03
2023-05-18T18:25:57.362Z,2.10
2023-05-18T18:28:23.896Z,2.30
2023-05-18T18:30:50.418Z,2.20
2023-05-18T18:33:17.929Z,3.08
2023-05-18T18:35:44.683Z,2.40
2023-05-18T18:38:12.975Z,2.13
2023-05-18T18:40:40.940Z,2.40
2023-05-18T18:43:07.782Z,2.30
2023-05-18T18:45:34.403Z,2.35
2023-05-18T18:48:01.965Z,2.83
2023-05-18T18:50:29.292Z,3.25
2023-05-18T18:52:56.331Z,2.78
2023-05-18T18:55:25.690Z,2.60
2023-05-18T18:57:55.780Z,3.38
2023-05-18T19:00:22.637Z,2.55
2023-05-18T19:02:49.276Z,2.88
2023-05-18T19:05:21.621Z,2.50
2023-05-18T19:07:49.404Z,2.70
2023-05-18T19:10:16.225Z,3.00
2023-05-18T19:12:45.712Z,2.75
2023-05-18T19:15:13.437Z,2.60
2023-05-18T19:17:45.874Z,2.53
2023-05-18T19:20:12.711Z,2.15
2023-05-18T19:22:40.477Z,1.85
2023-05-18T19:25:07.233Z,2.10
2023-05-18T19:27:35.632Z,1.83
2023-05-18T19:30:05.175Z,1.95
2023-05-18T19:32:32.121Z,1.85
2023-05-18T19:34:58.900Z,2.38
2023-05-18T19:37:25.426Z,2.03
2023-05-18T19:39:52.250Z,2.10
2023-05-18T19:42:18.985Z,2.20
2023-05-18T19:44:45.647Z,4.25
2023-05-18T19:47:12.206Z,3.92
2023-05-18T19:49:38.726Z,2.38
2023-05-18T19:52:08.372Z,2.20
2023-05-18T19:54:37.031Z,2.55
2023-05-18T19:57:03.885Z,3.20
2023-05-18T19:59:31.142Z,2.70
2023-05-18T20:01:57.863Z,2.80
2023-05-18T20:04:24.942Z,2.70
2023-05-18T20:06:52.008Z,3.72
2023-05-18T20:09:19.017Z,6.53
2023-05-18T20:11:46.394Z,8.35
2023-05-18T20:14:12.975Z,6.65
2023-05-18T20:16:40.793Z,5.10
2023-05-18T20:19:08.524Z,4.35
2023-05-18T20:21:35.906Z,4.15
2023-05-18T20:24:02.508Z,3.85
2023-05-18T20:26:31.300Z,3.53
2023-05-18T20:28:58.885Z,3.45
2023-05-18T20:31:25.457Z,3.22
2023-05-18T20:33:56.940Z,3.40
2023-05-18T20:36:25.343Z,3.28
2023-05-18T20:38:53.045Z,3.20
2023-05-18T20:41:20.171Z,3.90
2023-05-18T20:43:46.884Z,3.17
2023-05-18T20:46:16.230Z,3.33
2023-05-18T20:48:45.123Z,3.70
2023-05-18T20:51:18.368Z,3.55
2023-05-18T20:53:47.062Z,2.97
2023-05-18T20:56:15.665Z,3.38
2023-05-18T20:58:42.631Z,3.53
2023-05-18T21:01:11.011Z,4.05
2023-05-18T21:03:38.619Z,4.05
2023-05-18T21:06:05.709Z,3.63
2023-05-18T21:08:32.528Z,3.55
2023-05-18T21:10:59.184Z,3.17
2023-05-18T21:13:25.883Z,3.20
2023-05-18T21:15:53.748Z,3.47
2023-05-18T21:18:20.972Z,3.08
2023-05-18T21:20:49.140Z,3.20
2023-05-18T21:23:15.725Z,3.70
2023-05-18T21:25:42.268Z,3.13
2023-05-18T21:28:08.891Z,2.75
2023-05-18T21:30:35.511Z,3.28
2023-05-18T21:33:02.592Z,3.78
2023-05-18T21:35:29.563Z,3.20
2023-05-18T21:37:56.127Z,2.83
2023-05-18T21:40:22.966Z,3.42
2023-05-18T21:42:49.617Z,3.08
2023-05-18T21:45:17.452Z,2.92
2023-05-18T21:47:43.983Z,3.40
2023-05-18T21:50:10.918Z,2.65
2023-05-18T21:52:37.446Z,3.58
2023-05-18T21:55:07.558Z,2.45
2023-05-18T21:57:37.031Z,2.95
2023-05-18T22:00:04.216Z,2.33
2023-05-18T22:02:30.971Z,3.85
2023-05-18T22:04:57.579Z,2.53
2023-05-18T22:07:27.392Z,2.85
2023-05-18T22:09:53.859Z,2.90
2023-05-18T22:12:21.323Z,2.80
2023-05-18T22:14:47.834Z,3.63
2023-05-18T22:17:14.477Z,3.13
2023-05-18T22:19:42.268Z,2.67
2023-05-18T22:22:22.758Z,3.40
2023-05-18T22:24:55.510Z,3.17
2023-05-18T22:27:22.304Z,2.78
2023-05-18T22:29:48.906Z,2.80
2023-05-18T22:32:17.796Z,2.95
2023-05-18T22:34:44.473Z,3.63
2023-05-18T22:37:13.946Z,3.70
2023-05-18T22:39:40.663Z,3.08
2023-05-18T22:42:07.292Z,4.00
2023-05-18T22:44:34.219Z,2.65
2023-05-18T22:47:00.931Z,3.30
2023-05-18T22:49:27.566Z,3.22
2023-05-18T22:51:54.150Z,2.70
2023-05-18T22:54:21.375Z,3.10
2023-05-18T22:56:47.870Z,3.33
2023-05-18T22:59:14.448Z,4.10
2023-05-18T23:01:41.170Z,3.78
2023-05-18T23:04:13.223Z,3.15
2023-05-18T23:06:41.426Z,3.83
2023-05-18T23:09:08.310Z,2.88
2023-05-18T23:11:35.165Z,3.10
2023-05-18T23:14:02.789Z,3.75
2023-05-18T23:16:29.663Z,2.90
2023-05-18T23:18:58.753Z,3.08
2023-05-18T23:21:25.685Z,3.45
2023-05-18T23:23:52.240Z,3.50
2023-05-18T23:26:19.063Z,3.50
2023-05-18T23:28:45.617Z,2.90
2023-05-18T23:31:15.054Z,2.90
2023-05-18T23:33:42.018Z,2.88
2023-05-18T23:36:10.718Z,2.47
2023-05-18T23:38:38.265Z,2.65
2023-05-18T23:41:05.499Z,3.08
2023-05-18T23:43:32.396Z,3.03
2023-05-18T23:46:00.837Z,2.47
2023-05-18T23:48:29.946Z,2.92
2023-05-18T23:51:05.828Z,3.30
2023-05-18T23:53:32.873Z,2.50
2023-05-18T23:56:00.355Z,3.22
2023-05-18T23:58:31.952Z,3.05
